createdAt,value
2017-04-13T00:00:32.414Z,7.85
2017-04-13T00:01:12.896Z,7.82
2017-04-13T00:01:53.432Z,7.83
2017-04-13T00:02:33.921Z,7.87
2017-04-13T00:03:14.451Z,7.85
2017-04-13T00:03:54.924Z,7.77
2017-04-13T00:04:35.459Z,7.8
2017-04-13T00:05:15.915Z,7.85
2017-04-13T00:05:56.487Z,7.79
2017-04-13T00:06:36.968Z,7.79
2017-04-13T00:07:17.528Z,7.8
2017-04-13T00:07:58.030Z,7.73
2017-04-13T00:08:38.478Z,7.75
2017-04-13T00:09:19.055Z,7.63
2017-04-13T00:09:59.488Z,7.67
2017-04-13T00:10:39.989Z,7.66
2017-04-13T00:11:20.450Z,7.63
2017-04-13T00:12:00.946Z,7.58
2017-04-13T00:12:41.447Z,7.66
2017-04-13T00:13:21.919Z,7.58
2017-04-13T00:14:02.441Z,7.5
2017-04-13T00:14:43.003Z,7.51
2017-04-13T00:15:23.426Z,7.5
2017-04-13T00:16:03.939Z,7.42
2017-04-13T00:16:44.440Z,7.42
2017-04-13T00:17:24.920Z,7.47
2017-04-13T00:18:05.388Z,7.39
2017-04-13T00:18:45.915Z,7.43
2017-04-13T00:19:26.608Z,7.43
2017-04-13T00:20:07.163Z,7.35
2017-04-13T00:20:47.685Z,7.29
2017-04-13T00:21:28.265Z,7.38
2017-04-13T00:22:08.787Z,7.36
2017-04-13T00:22:49.285Z,7.39
2017-04-13T00:23:29.717Z,7.39
2017-04-13T00:24:10.211Z,7.38
2017-04-13T00:24:50.764Z,7.33
2017-04-13T00:25:31.254Z,7.31
2017-04-13T00:26:11.789Z,7.43
2017-04-13T00:26:52.264Z,7.43
2017-04-13T00:27:32.775Z,7.4
2017-04-13T00:28:13.323Z,7.39
2017-04-13T00:28:53.764Z,7.38
2017-04-13T00:29:34.302Z,7.42
2017-04-13T00:30:14.801Z,7.38
2017-04-13T00:30:55.298Z,7.42
2017-04-13T00:31:35.806Z,7.43
2017-04-13T00:32:16.282Z,7.5
2017-04-13T00:32:56.795Z,7.43
2017-04-13T00:33:37.273Z,7.51
2017-04-13T00:34:17.790Z,7.5
2017-04-13T00:34:58.307Z,7.51
2017-04-13T00:35:38.817Z,7.53
2017-04-13T00:36:19.334Z,7.56
2017-04-13T00:36:59.844Z,7.51
2017-04-13T00:37:40.331Z,7.51
2017-04-13T00:38:20.828Z,7.66
2017-04-13T00:39:01.297Z,7.6
2017-04-13T00:39:41.803Z,7.66
2017-04-13T00:40:22.364Z,7.66
2017-04-13T00:41:02.865Z,7.63
2017-04-13T00:41:43.405Z,7.66
2017-04-13T00:42:23.881Z,7.61
2017-04-13T00:43:04.415Z,7.67
2017-04-13T00:43:44.923Z,7.61
2017-04-13T00:44:25.370Z,7.6
2017-04-13T00:45:05.919Z,7.66
2017-04-13T00:45:46.380Z,7.67
2017-04-13T00:46:26.863Z,7.63
2017-04-13T00:47:09.984Z,7.69
2017-04-13T00:47:50.475Z,7.6
2017-04-13T00:48:30.962Z,7.7
2017-04-13T00:49:11.423Z,7.63
2017-04-13T00:49:51.884Z,7.67
2017-04-13T00:50:32.416Z,7.75
2017-04-13T00:51:12.908Z,7.73
2017-04-13T00:51:53.436Z,7.67
2017-04-13T00:52:33.965Z,7.66
2017-04-13T00:53:14.508Z,7.69
2017-04-13T00:53:54.950Z,7.75
2017-04-13T00:54:35.466Z,7.75
2017-04-13T00:55:15.958Z,7.72
2017-04-13T00:55:56.461Z,7.73
2017-04-13T00:56:36.973Z,7.77
2017-04-13T00:57:17.445Z,7.7
2017-04-13T00:57:58.009Z,7.75
2017-04-13T00:58:38.458Z,7.66
2017-04-13T00:59:19.017Z,7.67
2017-04-13T00:59:59.502Z,7.73
2017-04-13T01:00:40.037Z,7.69
2017-04-13T01:01:20.582Z,7.67
2017-04-13T01:02:01.098Z,7.69
2017-04-13T01:02:41.633Z,7.73
2017-04-13T01:03:22.121Z,7.69
2017-04-13T01:04:02.620Z,7.63
2017-04-13T01:04:43.107Z,7.75
2017-04-13T01:05:23.636Z,7.67
2017-04-13T01:06:04.110Z,7.75
2017-04-13T01:06:44.609Z,7.67
2017-04-13T01:07:25.118Z,7.66
2017-04-13T01:08:05.585Z,7.61
2017-04-13T01:08:46.104Z,7.6
2017-04-13T01:09:26.694Z,7.61
2017-04-13T01:10:07.235Z,7.6
2017-04-13T01:10:47.706Z,7.66
2017-04-13T01:11:28.220Z,7.5
2017-04-13T01:12:08.723Z,7.5
2017-04-13T01:12:49.196Z,7.51
2017-04-13T01:13:29.720Z,7.5
2017-04-13T01:14:10.288Z,7.56
2017-04-13T01:14:50.799Z,7.6
2017-04-13T01:15:31.297Z,7.53
2017-04-13T01:16:11.836Z,7.5
2017-04-13T01:16:52.300Z,7.51
2017-04-13T01:17:32.813Z,7.47
2017-04-13T01:18:13.343Z,7.51
2017-04-13T01:18:53.865Z,7.53
2017-04-13T01:19:34.400Z,7.51
2017-04-13T01:20:14.871Z,7.51
2017-04-13T01:20:55.394Z,7.5
2017-04-13T01:21:35.918Z,7.53
2017-04-13T01:22:16.412Z,7.5
2017-04-13T01:22:56.922Z,7.57
2017-04-13T01:23:37.559Z,7.57
2017-04-13T01:24:18.093Z,7.67
2017-04-13T01:24:58.556Z,7.61
2017-04-13T01:25:39.089Z,7.63
2017-04-13T01:26:19.687Z,7.61
2017-04-13T01:27:00.184Z,7.66
2017-04-13T01:27:40.685Z,7.63
2017-04-13T01:28:21.232Z,7.63
2017-04-13T01:29:01.711Z,7.7
2017-04-13T01:29:42.231Z,7.6
2017-04-13T01:30:22.738Z,7.73
2017-04-13T01:31:03.282Z,7.69
2017-04-13T01:31:43.768Z,7.63
2017-04-13T01:32:24.465Z,7.66
2017-04-13T01:33:05.032Z,7.66
2017-04-13T01:33:45.566Z,7.67
2017-04-13T01:34:26.006Z,7.63
2017-04-13T01:35:06.549Z,7.61
2017-04-13T01:35:47.049Z,7.6
2017-04-13T01:36:27.527Z,7.69
2017-04-13T01:37:08.074Z,7.63
2017-04-13T01:37:48.622Z,7.67
2017-04-13T01:38:29.083Z,7.67
2017-04-13T01:51:15.031Z,7.69
2017-04-13T01:52:03.245Z,7.63
2017-04-13T01:52:51.864Z,7.6
2017-04-13T01:53:41.010Z,7.66
2017-04-13T01:54:29.698Z,7.6
2017-04-13T01:55:12.273Z,7.58
2017-04-13T01:55:52.728Z,7.54
2017-04-13T01:56:33.224Z,7.53
2017-04-13T01:57:13.747Z,7.56
2017-04-13T01:57:54.279Z,7.51
2017-04-13T01:58:34.748Z,7.5
2017-04-13T01:59:15.204Z,7.47
2017-04-13T01:59:55.696Z,7.47
2017-04-13T02:00:36.169Z,7.5
2017-04-13T02:01:16.661Z,7.5
2017-04-13T02:01:57.119Z,7.5
2017-04-13T02:02:37.639Z,7.48
2017-04-13T02:03:18.104Z,7.5
2017-04-13T02:03:58.565Z,7.5
2017-04-13T02:04:39.108Z,7.48
2017-04-13T02:05:19.626Z,7.53
2017-04-13T02:06:00.153Z,7.54
2017-04-13T02:06:40.583Z,7.53
2017-04-13T02:07:21.049Z,7.51
2017-04-13T02:08:01.597Z,7.51
2017-04-13T02:08:42.062Z,7.5
2017-04-13T02:09:22.523Z,7.45
2017-04-13T02:10:03.038Z,7.45
2017-04-13T02:10:43.458Z,7.48
2017-04-13T02:11:23.958Z,7.42
2017-04-13T02:12:04.422Z,7.47
2017-04-13T02:12:44.895Z,7.42
2017-04-13T02:13:25.460Z,7.4
2017-04-13T02:14:05.957Z,7.5
2017-04-13T02:14:46.459Z,7.4
2017-04-13T02:15:26.900Z,7.36
2017-04-13T02:16:07.424Z,7.43
2017-04-13T02:16:47.840Z,7.35
2017-04-13T02:17:28.356Z,7.42
2017-04-13T02:18:08.842Z,7.4
2017-04-13T02:18:49.351Z,7.35
2017-04-13T02:19:29.930Z,7.35
2017-04-13T02:20:10.392Z,7.35
2017-04-13T02:20:50.882Z,7.39
2017-04-13T02:21:31.364Z,7.36
2017-04-13T02:22:11.837Z,7.4
2017-04-13T02:22:52.373Z,7.42
2017-04-13T02:23:32.819Z,7.47
2017-04-13T02:24:13.354Z,7.48
2017-04-13T02:24:53.769Z,7.48
2017-04-13T02:25:34.241Z,7.42
2017-04-13T02:26:14.754Z,7.5
2017-04-13T02:26:55.229Z,7.47
2017-04-13T02:27:35.736Z,7.51
2017-04-13T02:28:16.217Z,7.47
2017-04-13T02:28:56.680Z,7.5
2017-04-13T02:29:37.202Z,7.51
2017-04-13T02:30:17.623Z,7.5
2017-04-13T02:30:58.102Z,7.53
2017-04-13T02:31:38.581Z,7.48
2017-04-13T02:32:19.115Z,7.54
2017-04-13T02:32:59.571Z,7.48
2017-04-13T02:33:40.068Z,7.47
2017-04-13T02:34:20.551Z,7.48
2017-04-13T02:35:01.035Z,7.43
2017-04-13T02:35:41.539Z,7.48
2017-04-13T02:36:21.992Z,7.43
2017-04-13T02:37:02.452Z,7.43
2017-04-13T02:37:43.022Z,7.38
2017-04-13T02:38:23.459Z,7.47
2017-04-13T02:39:03.985Z,7.42
2017-04-13T02:39:44.442Z,7.48
2017-04-13T02:40:24.933Z,7.48
2017-04-13T02:41:05.404Z,7.47
2017-04-13T02:41:45.873Z,7.42
2017-04-13T02:42:26.380Z,7.45
2017-04-13T02:43:06.875Z,7.4
2017-04-13T02:43:47.350Z,7.43
2017-04-13T02:44:27.839Z,7.48
2017-04-13T02:45:08.317Z,7.5
2017-04-13T02:45:48.845Z,7.48
2017-04-13T02:46:29.319Z,7.4
2017-04-13T02:47:09.791Z,7.45
2017-04-13T02:47:50.269Z,7.39
2017-04-13T02:48:30.759Z,7.5
2017-04-13T02:49:11.258Z,7.53
2017-04-13T02:49:51.738Z,7.5
2017-04-13T02:50:32.247Z,7.53
2017-04-13T02:51:12.716Z,7.53
2017-04-13T02:51:53.212Z,7.48
2017-04-13T02:52:33.673Z,7.6
2017-04-13T02:53:14.221Z,7.66
2017-04-13T02:53:54.689Z,7.63
2017-04-13T02:54:35.145Z,7.6
2017-04-13T02:55:15.634Z,7.66
2017-04-13T02:55:56.115Z,7.67
2017-04-13T02:56:36.575Z,7.67
2017-04-13T02:57:17.064Z,7.6
2017-04-13T02:57:57.542Z,7.63
2017-04-13T02:58:38.084Z,7.67
2017-04-13T02:59:18.533Z,7.66
2017-04-13T02:59:59.030Z,7.73
2017-04-13T03:00:39.505Z,7.63
2017-04-13T03:01:19.963Z,7.66
2017-04-13T03:02:00.399Z,7.67
2017-04-13T03:02:40.872Z,7.72
2017-04-13T03:03:21.371Z,7.7
2017-04-13T03:04:01.885Z,7.67
2017-04-13T03:04:42.331Z,7.73
2017-04-13T03:05:22.839Z,7.75
2017-04-13T03:06:03.335Z,7.69
2017-04-13T03:06:43.761Z,7.67
2017-04-13T03:07:24.255Z,7.58
2017-04-13T03:08:04.824Z,7.63
2017-04-13T03:08:45.281Z,7.7
2017-04-13T03:09:25.833Z,7.63
2017-04-13T03:10:06.309Z,7.5
2017-04-13T03:10:46.770Z,7.5
2017-04-13T03:11:27.212Z,7.6
2017-04-13T03:12:07.749Z,7.6
2017-04-13T03:12:48.229Z,7.5
2017-04-13T03:13:28.732Z,7.51
2017-04-13T03:14:09.188Z,7.56
2017-04-13T03:14:49.726Z,7.5
2017-04-13T03:15:30.228Z,7.53
2017-04-13T03:16:10.698Z,7.48
2017-04-13T03:16:51.182Z,7.51
2017-04-13T03:17:31.726Z,7.45
2017-04-13T03:18:12.211Z,7.54
2017-04-13T03:18:52.664Z,7.51
2017-04-13T03:19:33.185Z,7.47
2017-04-13T03:20:13.713Z,7.54
2017-04-13T03:20:54.242Z,7.51
2017-04-13T03:21:34.778Z,7.5
2017-04-13T03:22:15.240Z,7.5
2017-04-13T03:22:55.746Z,7.53
2017-04-13T03:23:36.221Z,7.54
2017-04-13T03:24:16.687Z,7.47
2017-04-13T03:24:57.168Z,7.48
2017-04-13T03:25:37.654Z,7.56
2017-04-13T03:26:18.131Z,7.66
2017-04-13T03:26:58.656Z,7.57
2017-04-13T03:27:39.134Z,7.66
2017-04-13T03:28:19.655Z,7.63
2017-04-13T03:29:00.098Z,7.63
2017-04-13T03:29:40.560Z,7.61
2017-04-13T03:30:21.109Z,7.66
2017-04-13T03:31:01.564Z,7.66
2017-04-13T03:31:42.062Z,7.7
2017-04-13T03:32:22.545Z,7.66
2017-04-13T03:33:03.014Z,7.72
2017-04-13T03:33:43.523Z,7.7
2017-04-13T03:34:24.027Z,7.73
2017-04-13T03:35:04.512Z,7.72
2017-04-13T03:35:45.019Z,7.69
2017-04-13T03:36:25.496Z,7.76
2017-04-13T03:37:05.953Z,7.73
2017-04-13T03:37:46.465Z,7.72
2017-04-13T03:38:26.944Z,7.77
2017-04-13T03:39:07.451Z,7.72
2017-04-13T03:39:47.918Z,7.77
2017-04-13T03:40:28.367Z,7.76
2017-04-13T03:41:08.984Z,7.73
2017-04-13T03:41:49.428Z,7.76
2017-04-13T03:42:30.013Z,7.76
2017-04-13T03:43:10.566Z,7.73
2017-04-13T03:43:51.015Z,7.7
2017-04-13T03:44:31.520Z,7.76
2017-04-13T03:45:12.005Z,7.72
2017-04-13T03:45:52.503Z,7.63
2017-04-13T03:46:33.015Z,7.7
2017-04-13T03:47:13.522Z,7.79
2017-04-13T03:47:53.976Z,7.72
2017-04-13T03:48:34.526Z,7.76
2017-04-13T03:49:15.005Z,7.73
2017-04-13T03:49:55.481Z,7.67
2017-04-13T03:50:35.990Z,7.66
2017-04-13T03:51:16.506Z,7.69
2017-04-13T03:51:56.935Z,7.7
2017-04-13T03:52:37.449Z,7.75
2017-04-13T03:53:17.945Z,7.73
2017-04-13T03:53:58.451Z,7.69
2017-04-13T03:54:38.947Z,7.73
2017-04-13T03:55:19.408Z,7.69
2017-04-13T03:55:59.950Z,7.77
2017-04-13T03:56:40.441Z,7.7
2017-04-13T03:57:20.922Z,7.77
2017-04-13T03:58:01.450Z,7.7
2017-04-13T03:58:41.935Z,7.75
2017-04-13T03:59:22.478Z,7.83
2017-04-13T04:00:02.923Z,7.73
2017-04-13T04:00:43.389Z,7.63
2017-04-13T04:01:23.895Z,7.7
2017-04-13T04:02:04.363Z,7.7
2017-04-13T04:02:44.911Z,7.63
2017-04-13T04:03:25.448Z,7.67
2017-04-13T04:04:05.956Z,7.75
2017-04-13T04:04:46.447Z,7.77
2017-04-13T04:05:26.917Z,7.72
2017-04-13T04:06:07.460Z,7.67
2017-04-13T04:06:47.969Z,7.77
2017-04-13T04:07:28.485Z,7.82
2017-04-13T04:08:08.996Z,7.79
2017-04-13T04:08:49.569Z,7.83
2017-04-13T04:09:30.048Z,7.79
2017-04-13T04:10:10.581Z,7.69
2017-04-13T04:10:51.106Z,7.76
2017-04-13T04:11:31.631Z,7.66
2017-04-13T04:12:12.127Z,7.66
2017-04-13T04:12:52.605Z,7.66
2017-04-13T04:13:33.096Z,7.61
2017-04-13T04:14:13.634Z,7.66
2017-04-13T04:14:54.135Z,7.61
2017-04-13T04:15:34.636Z,7.57
2017-04-13T04:16:15.107Z,7.5
2017-04-13T04:16:55.640Z,7.48
2017-04-13T04:17:36.117Z,7.5
2017-04-13T04:18:16.640Z,7.45
2017-04-13T04:18:57.118Z,7.43
2017-04-13T04:19:37.622Z,7.5
2017-04-13T04:20:18.153Z,7.45
2017-04-13T04:20:58.653Z,7.45
2017-04-13T04:21:39.178Z,7.47
2017-04-13T04:22:19.709Z,7.4
2017-04-13T04:23:00.226Z,7.4
2017-04-13T04:23:40.721Z,7.39
2017-04-13T04:24:21.299Z,7.4
2017-04-13T04:25:01.834Z,7.36
2017-04-13T04:25:42.309Z,7.4
2017-04-13T04:26:22.824Z,7.42
2017-04-13T04:27:03.289Z,7.39
2017-04-13T04:27:43.831Z,7.45
2017-04-13T04:28:24.370Z,7.47
2017-04-13T04:29:04.877Z,7.5
2017-04-13T04:29:45.460Z,7.47
2017-04-13T04:30:25.954Z,7.48
2017-04-13T04:31:06.503Z,7.48
2017-04-13T04:31:47.148Z,7.47
2017-04-13T04:32:27.631Z,7.5
2017-04-13T04:33:08.135Z,7.51
2017-04-13T04:33:48.694Z,7.48
2017-04-13T04:34:29.223Z,7.42
2017-04-13T04:35:09.697Z,7.45
2017-04-13T04:35:50.295Z,7.51
2017-04-13T04:36:30.738Z,7.4
2017-04-13T04:37:11.244Z,7.4
2017-04-13T04:37:51.762Z,7.42
2017-04-13T04:38:32.310Z,7.35
2017-04-13T04:39:12.826Z,7.39
2017-04-13T04:39:53.374Z,7.35
2017-04-13T04:40:33.922Z,7.32
2017-04-13T04:41:14.482Z,7.29
2017-04-13T04:41:55.025Z,7.25
2017-04-13T04:42:35.533Z,7.24
2017-04-13T04:43:15.999Z,7.24
2017-04-13T04:43:56.538Z,7.24
2017-04-13T04:44:37.080Z,7.23
2017-04-13T04:45:17.601Z,7.24
2017-04-13T04:45:58.156Z,7.24
2017-04-13T04:46:38.672Z,7.18
2017-04-13T04:47:19.240Z,7.15
2017-04-13T04:47:59.726Z,7.14
2017-04-13T04:48:40.331Z,7.14
2017-04-13T04:49:20.889Z,6.96
2017-04-13T04:50:01.367Z,7.13
2017-04-13T04:50:41.846Z,7.06
2017-04-13T04:51:22.449Z,7.03
2017-04-13T04:52:02.944Z,7.11
2017-04-13T04:52:43.432Z,7.1
2017-04-13T04:53:23.938Z,7.13
2017-04-13T04:54:04.477Z,7.07
2017-04-13T04:54:44.972Z,7.2
2017-04-13T04:55:25.556Z,7.07
2017-04-13T04:56:06.061Z,7.07
2017-04-13T04:56:46.569Z,7.17
2017-04-13T04:57:27.096Z,7.13
2017-04-13T04:58:07.618Z,7.13
2017-04-13T04:58:48.127Z,7.07
2017-04-13T04:59:28.588Z,7.15
2017-04-13T05:00:09.134Z,7.18
2017-04-13T05:00:49.712Z,7.14
2017-04-13T05:01:30.295Z,7.11
2017-04-13T05:02:10.821Z,7.14
2017-04-13T05:02:51.330Z,7.07
2017-04-13T05:03:31.846Z,7.02
2017-04-13T05:04:12.425Z,7.1
2017-04-13T05:04:52.891Z,7.11
2017-04-13T05:05:33.417Z,7.18
2017-04-13T05:06:13.930Z,6.99
2017-04-13T05:06:54.379Z,7.14
2017-04-13T05:22:45.765Z,6.89
2017-04-13T05:23:34.287Z,6.92
2017-04-13T05:24:23.054Z,6.95
2017-04-13T05:25:11.210Z,6.97
2017-04-13T05:26:00.006Z,6.89
2017-04-13T05:26:48.811Z,6.97
2017-04-13T05:27:37.735Z,7
2017-04-13T05:28:25.964Z,7.06
2017-04-13T05:29:14.972Z,7.05
2017-04-13T05:30:03.591Z,7.05
2017-04-13T05:30:51.972Z,6.99
2017-04-13T05:31:40.629Z,7.06
2017-04-13T05:32:29.351Z,7.02
2017-04-13T05:33:18.574Z,7.03
2017-04-13T05:34:06.719Z,7.11
2017-04-13T05:34:55.733Z,7.11
2017-04-13T05:35:44.607Z,7.15
2017-04-13T05:36:33.171Z,7.13
2017-04-13T05:37:21.535Z,7.28
2017-04-13T05:38:10.287Z,7.29
2017-04-13T05:38:58.807Z,7.25
2017-04-13T05:39:48.056Z,7.38
2017-04-13T05:40:36.371Z,7.4
2017-04-13T05:41:24.945Z,7.42
2017-04-13T05:42:14.611Z,7.48
2017-04-13T05:43:03.324Z,7.45
2017-04-13T05:43:51.728Z,7.5
2017-04-13T05:44:40.574Z,7.51
2017-04-13T05:45:28.811Z,7.51
2017-04-13T05:46:18.264Z,7.57
2017-04-13T05:47:06.702Z,7.6
2017-04-13T05:47:54.288Z,7.61
2017-04-13T05:48:34.524Z,7.63
2017-04-13T05:49:15.004Z,7.66
2017-04-13T05:49:55.543Z,7.61
2017-04-13T05:50:36.004Z,7.7
2017-04-13T05:51:16.445Z,7.66
2017-04-13T05:51:56.949Z,7.66
2017-04-13T05:52:37.416Z,7.76
2017-04-13T05:53:17.898Z,7.7
2017-04-13T05:53:58.420Z,7.77
2017-04-13T05:54:38.943Z,7.77
2017-04-13T05:55:19.412Z,7.69
2017-04-13T05:55:59.933Z,7.77
2017-04-13T05:56:40.475Z,7.76
2017-04-13T05:57:20.948Z,7.83
2017-04-13T05:58:01.430Z,7.83
2017-04-13T05:58:41.979Z,7.76
2017-04-13T05:59:22.439Z,7.82
2017-04-13T06:00:02.911Z,7.83
2017-04-13T06:00:43.439Z,7.79
2017-04-13T06:01:23.942Z,7.85
2017-04-13T06:02:04.385Z,7.83
2017-04-13T06:02:44.888Z,7.79
2017-04-13T06:03:25.393Z,7.9
2017-04-13T06:04:05.869Z,7.97
2017-04-13T06:04:46.422Z,7.77
2017-04-13T06:05:27.079Z,7.93
2017-04-13T06:06:07.426Z,7.88
2017-04-13T06:06:47.938Z,7.95
2017-04-13T06:07:28.401Z,7.98
2017-04-13T06:08:08.951Z,7.9
2017-04-13T06:08:49.442Z,7.9
2017-04-13T06:09:30.720Z,7.94
2017-04-13T06:10:11.331Z,7.95
2017-04-13T06:10:51.824Z,7.97
2017-04-13T06:11:32.288Z,7.98
2017-04-13T06:12:12.802Z,7.95
2017-04-13T06:12:53.332Z,7.98
2017-04-13T06:13:33.830Z,8.05
2017-04-13T06:14:14.298Z,8.01
2017-04-13T06:14:54.779Z,7.97
2017-04-13T06:15:35.266Z,7.97
2017-04-13T06:16:15.741Z,8.01
2017-04-13T06:16:56.275Z,7.95
2017-04-13T06:17:36.781Z,8.06
2017-04-13T06:18:17.270Z,8.01
2017-04-13T06:18:57.723Z,7.94
2017-04-13T06:19:38.215Z,7.98
2017-04-13T06:20:18.776Z,7.97
2017-04-13T06:20:59.231Z,8.01
2017-04-13T06:21:39.732Z,8
2017-04-13T06:22:20.240Z,8.08
2017-04-13T06:23:00.750Z,8.03
2017-04-13T06:23:41.278Z,8.06
2017-04-13T06:24:21.766Z,8.06
2017-04-13T06:25:02.276Z,8.12
2017-04-13T06:25:42.841Z,8.12
2017-04-13T06:26:23.361Z,8.06
2017-04-13T06:27:03.871Z,8.1
2017-04-13T06:27:44.369Z,8.06
2017-04-13T06:28:24.924Z,8.12
2017-04-13T06:29:05.398Z,8.18
2017-04-13T06:29:45.941Z,8.16
2017-04-13T06:30:26.421Z,8.15
2017-04-13T06:31:06.959Z,8.23
2017-04-13T06:31:47.465Z,8.15
2017-04-13T06:32:28.030Z,8.3
2017-04-13T06:33:08.526Z,8.26
2017-04-13T06:33:49.070Z,8.28
2017-04-13T06:34:29.555Z,8.24
2017-04-13T06:35:10.062Z,8.26
2017-04-13T06:35:50.626Z,8.23
2017-04-13T06:36:31.222Z,8.2
2017-04-13T06:37:11.737Z,8.26
2017-04-13T06:37:52.221Z,8.2
2017-04-13T06:38:32.787Z,8.2
2017-04-13T06:39:13.289Z,8.23
2017-04-13T06:39:53.788Z,8.19
2017-04-13T06:40:34.338Z,8.12
2017-04-13T06:41:14.876Z,8.12
2017-04-13T06:41:55.425Z,8.1
2017-04-13T06:42:35.892Z,8.13
2017-04-13T06:43:16.443Z,8.15
2017-04-13T06:43:56.930Z,8.09
2017-04-13T06:44:37.441Z,8.09
2017-04-13T06:45:18.002Z,8.12
2017-04-13T06:45:58.539Z,8.12
2017-04-13T06:46:39.097Z,8.15
2017-04-13T06:47:19.603Z,8.18
2017-04-13T06:48:00.162Z,8.2
2017-04-13T06:48:41.169Z,8.18
2017-04-13T06:49:21.611Z,8.28
2017-04-13T06:50:02.157Z,8.23
2017-04-13T06:50:42.666Z,8.28
2017-04-13T06:51:23.223Z,8.3
2017-04-13T06:52:03.772Z,8.3
2017-04-13T06:52:44.233Z,8.31
2017-04-13T06:53:24.719Z,8.3
2017-04-13T06:54:05.302Z,8.31
2017-04-13T06:54:45.804Z,8.31
2017-04-13T06:55:26.332Z,8.3
2017-04-13T06:56:06.863Z,8.28
2017-04-13T06:56:47.402Z,8.3
2017-04-13T06:57:27.894Z,8.31
2017-04-13T06:58:08.500Z,8.42
2017-04-13T06:58:49.013Z,8.42
2017-04-13T06:59:29.547Z,8.45
2017-04-13T07:00:10.099Z,8.38
2017-04-13T07:00:50.531Z,8.33
2017-04-13T07:01:31.073Z,8.41
2017-04-13T07:02:13.574Z,8.33
2017-04-13T07:02:57.543Z,8.38
2017-04-13T07:03:40.563Z,8.36
2017-04-13T07:04:21.892Z,8.38
2017-04-13T07:05:02.434Z,8.37
2017-04-13T07:05:45.439Z,8.42
2017-04-13T07:06:27.437Z,8.38
2017-04-13T07:07:07.925Z,8.42
2017-04-13T07:07:51.389Z,8.49
2017-04-13T07:08:31.895Z,8.55
2017-04-13T07:09:12.406Z,8.63
2017-04-13T07:09:52.879Z,8.61
2017-04-13T07:10:33.368Z,8.52
2017-04-13T07:11:13.887Z,8.61
2017-04-13T07:11:54.453Z,8.55
2017-04-13T07:12:34.959Z,8.64
2017-04-13T07:13:15.520Z,8.56
2017-04-13T07:13:55.997Z,8.52
2017-04-13T07:14:36.494Z,8.55
2017-04-13T07:15:17.026Z,8.56
2017-04-13T07:15:58.121Z,8.53
2017-04-13T07:16:38.636Z,8.46
2017-04-13T07:17:19.164Z,8.49
2017-04-13T07:17:59.690Z,8.52
2017-04-13T07:18:42.088Z,8.42
2017-04-13T07:19:22.625Z,8.53
2017-04-13T07:20:03.186Z,8.48
2017-04-13T07:20:43.711Z,8.51
2017-04-13T07:21:24.186Z,8.52
2017-04-13T07:22:04.707Z,8.51
2017-04-13T07:22:45.233Z,8.52
2017-04-13T07:26:15.553Z,8.49
2017-04-13T07:26:55.693Z,8.49
2017-04-13T07:27:37.821Z,8.46
2017-04-13T07:28:18.294Z,8.53
2017-04-13T07:28:58.753Z,8.48
2017-04-13T07:29:39.241Z,8.52
2017-04-13T07:30:19.699Z,8.46
2017-04-13T07:31:00.155Z,8.49
2017-04-13T07:31:40.631Z,8.6
2017-04-13T07:32:21.193Z,8.64
2017-04-13T07:33:01.651Z,8.6
2017-04-13T07:33:42.142Z,8.63
2017-04-13T07:34:22.672Z,8.66
2017-04-13T07:35:03.165Z,8.64
2017-04-13T07:35:44.322Z,8.58
2017-04-13T07:36:24.838Z,8.49
2017-04-13T07:37:05.314Z,8.49
2017-04-13T07:37:45.793Z,8.46
2017-04-13T07:38:26.357Z,8.51
2017-04-13T07:39:06.814Z,8.56
2017-04-13T07:39:47.303Z,8.46
2017-04-13T07:40:27.795Z,8.46
2017-04-13T07:41:08.269Z,8.58
2017-04-13T07:41:48.764Z,8.6
2017-04-13T07:42:29.240Z,8.66
2017-04-13T07:43:09.678Z,8.69
2017-04-13T07:43:50.159Z,8.67
2017-04-13T07:44:30.607Z,8.82
2017-04-13T07:45:11.153Z,8.79
2017-04-13T07:45:51.635Z,8.78
2017-04-13T07:46:32.232Z,8.84
2017-04-13T07:47:12.743Z,8.85
2017-04-13T07:47:53.238Z,8.91
2017-04-13T07:48:33.679Z,8.99
2017-04-13T07:49:14.510Z,8.97
2017-04-13T07:49:54.996Z,8.91
2017-04-13T07:50:35.573Z,8.92
2017-04-13T07:51:16.001Z,8.81
2017-04-13T07:51:56.599Z,8.82
2017-04-13T07:52:37.160Z,8.71
2017-04-13T07:53:18.462Z,8.74
2017-04-13T07:53:58.964Z,8.74
2017-04-13T07:54:39.465Z,8.79
2017-04-13T07:55:19.991Z,8.84
2017-04-13T07:56:00.483Z,8.82
2017-04-13T07:56:40.987Z,8.81
2017-04-13T07:57:21.559Z,8.87
2017-04-13T07:58:03.090Z,8.85
2017-04-13T07:58:43.587Z,8.88
2017-04-13T07:59:24.081Z,8.97
2017-04-13T08:00:04.574Z,8.91
2017-04-13T08:00:45.062Z,9
2017-04-13T08:01:25.591Z,9
2017-04-13T08:02:06.257Z,9.03
2017-04-13T08:02:46.766Z,8.89
2017-04-13T08:03:28.228Z,8.92
2017-04-13T08:04:08.788Z,8.89
2017-04-13T08:04:49.266Z,8.91
2017-04-13T08:05:29.891Z,8.95
2017-04-13T08:06:10.380Z,8.97
2017-04-13T08:06:51.012Z,8.95
2017-04-13T08:07:31.439Z,8.99
2017-04-13T08:08:12.141Z,8.89
2017-04-13T08:08:54.428Z,9
2017-04-13T08:09:34.895Z,9
2017-04-13T08:10:15.379Z,9.03
2017-04-13T08:10:56.226Z,8.99
2017-04-13T08:11:39.245Z,8.99
2017-04-13T08:12:24.349Z,8.97
2017-04-13T08:13:07.894Z,8.88
2017-04-13T08:13:48.324Z,9.02
2017-04-13T08:14:31.063Z,9.02
2017-04-13T08:15:13.164Z,9
2017-04-13T08:15:55.164Z,9.11
2017-04-13T08:16:36.673Z,9.13
2017-04-13T08:17:20.106Z,9.14
2017-04-13T08:18:05.679Z,9.16
2017-04-13T08:18:53.384Z,9.19
2017-04-13T08:19:37.615Z,9.16
2017-04-13T08:20:18.196Z,9.11
2017-04-13T08:20:58.650Z,9.16
2017-04-13T08:21:39.133Z,8.99
2017-04-13T08:22:19.646Z,9.13
2017-04-13T08:23:03.995Z,8.99
2017-04-13T08:23:49.005Z,8.88
2017-04-13T08:24:29.753Z,8.87
2017-04-13T08:25:10.292Z,8.84
2017-04-13T08:25:50.910Z,8.81
2017-04-13T08:26:31.559Z,8.79
2017-04-13T08:27:12.098Z,8.82
2017-04-13T08:27:52.625Z,8.82
2017-04-13T08:28:33.372Z,8.84
2017-04-13T08:29:14.062Z,8.69
2017-04-13T08:29:54.747Z,8.61
2017-04-13T08:30:35.677Z,8.61
2017-04-13T08:31:19.485Z,8.49
2017-04-13T08:32:00.057Z,8.48
2017-04-13T08:32:40.587Z,8.34
2017-04-13T08:33:21.154Z,8.42
2017-04-13T08:34:01.637Z,8.37
2017-04-13T08:34:42.350Z,8.44
2017-04-13T08:35:22.768Z,8.48
2017-04-13T08:36:03.520Z,8.49
2017-04-13T08:36:44.046Z,8.51
2017-04-13T08:37:26.149Z,8.56
2017-04-13T08:38:06.708Z,8.53
2017-04-13T08:38:50.294Z,8.42
2017-04-13T08:39:31.386Z,8.41
2017-04-13T08:40:11.901Z,8.33
2017-04-13T08:40:52.485Z,8.23
2017-04-13T08:41:38.052Z,8.19
2017-04-13T08:42:18.920Z,8.09
2017-04-13T08:43:08.637Z,8.1
2017-04-13T08:43:53.082Z,8.12
2017-04-13T08:44:36.379Z,8.18
2017-04-13T08:45:16.897Z,8.26
2017-04-13T08:45:57.408Z,8.31
2017-04-13T08:46:37.929Z,8.27
2017-04-13T08:47:18.412Z,8.33
2017-04-13T08:48:02.272Z,8.41
2017-04-13T08:48:42.763Z,8.44
2017-04-13T08:49:26.779Z,8.31
2017-04-13T08:50:09.342Z,8.33
2017-04-13T08:50:49.793Z,8.27
2017-04-13T08:51:30.317Z,8.26
2017-04-13T08:52:10.767Z,8.15
2017-04-13T08:52:51.594Z,8.16
2017-04-13T08:53:32.035Z,8.09
2017-04-13T08:54:12.624Z,8.18
2017-04-13T08:54:55.901Z,8.18
2017-04-13T08:55:39.252Z,8.12
2017-04-13T08:56:23.494Z,8.15
2017-04-13T08:57:04.031Z,8.09
2017-04-13T08:57:46.505Z,8.03
2017-04-13T08:58:28.830Z,7.93
2017-04-13T08:59:16.947Z,7.93
2017-04-13T08:59:58.178Z,7.9
2017-04-13T09:00:46.470Z,7.91
2017-04-13T09:01:38.758Z,7.9
2017-04-13T09:02:20.339Z,7.97
2017-04-13T09:03:00.820Z,7.95
2017-04-13T09:03:43.332Z,7.88
2017-04-13T09:04:28.255Z,7.98
2017-04-13T09:05:14.442Z,7.94
2017-04-13T09:05:54.951Z,7.91
2017-04-13T09:06:35.436Z,7.97
2017-04-13T09:07:15.950Z,8.06
2017-04-13T09:07:56.417Z,8.13
2017-04-13T09:08:36.905Z,8.27
2017-04-13T09:09:17.437Z,8.3
2017-04-13T09:09:57.895Z,8.51
2017-04-13T09:10:38.395Z,8.63
2017-04-13T09:11:21.912Z,8.73
2017-04-13T09:12:02.364Z,8.79
2017-04-13T09:12:42.890Z,8.91
2017-04-13T09:13:23.421Z,8.91
2017-04-13T09:14:04.657Z,8.91
2017-04-13T09:14:45.105Z,8.97
2017-04-13T09:15:25.736Z,9.02
2017-04-13T09:16:06.218Z,9
2017-04-13T09:16:46.730Z,9
2017-04-13T09:17:27.213Z,8.97
2017-04-13T09:18:07.715Z,9.02
2017-04-13T09:18:48.188Z,8.84
2017-04-13T09:19:28.713Z,8.89
2017-04-13T09:20:09.314Z,8.92
2017-04-13T09:20:51.465Z,8.95
2017-04-13T09:21:31.950Z,9.02
2017-04-13T09:22:21.423Z,9.03
2017-04-13T09:23:06.740Z,9.02
2017-04-13T09:23:53.222Z,9.08
2017-04-13T09:24:39.165Z,9.19
2017-04-13T09:25:28.521Z,9.28
2017-04-13T09:26:17.566Z,9.34
2017-04-13T09:27:05.863Z,9.44
2017-04-13T09:27:56.712Z,9.54
2017-04-13T09:28:46.543Z,9.61
2017-04-13T09:29:32.581Z,9.47
2017-04-13T09:30:19.464Z,9.55
2017-04-13T09:31:07.533Z,9.51
2017-04-13T09:31:51.744Z,9.48
2017-04-13T09:32:39.596Z,9.41
2017-04-13T09:33:26.688Z,9.39
2017-04-13T09:34:13.461Z,9.37
2017-04-13T09:34:58.831Z,9.39
2017-04-13T09:35:42.664Z,9.46
2017-04-13T09:36:26.997Z,9.47
2017-04-13T09:37:12.528Z,9.62
2017-04-13T09:38:02.907Z,9.61
2017-04-13T09:38:51.701Z,9.68
2017-04-13T09:39:37.222Z,9.74
2017-04-13T09:40:22.804Z,9.86
2017-04-13T09:41:12.605Z,9.97
2017-04-13T09:41:58.718Z,9.91
2017-04-13T09:42:44.480Z,9.97
2017-04-13T09:43:31.695Z,9.98